Sainty Vogue — V7CK6 — position and weather

sailwx.info

Track history (hours):
 
Tides and Currents Weather Stations Pressure Air Temp Water Temp Dewpoint Dewpoint Depression Visibility Wind Speed Wind Dir Waves Ship Positions

Sainty Vogue

Last reported at 2017-Oct-15 02:58 UTC. Time now 2017-Oct-17 02:19 UTC.
Position N 41°19' E 002°12'.

Length 158 m; draft 6.2 m.

Type: Ship (hazmat cat D). MMSI: 538005276.

Date/timePositionNaut miles runAvg speedWind from/ knotsBaromVisibWave heightAir tempDewpointWater temp
2017-Oct-15 02:58N 41°19' E 002°12'9011.3
2017-Oct-14 18:59N 42°09' E 003°52'1412.3
2017-Oct-14 17:49N 42°19' E 004°05'412.1
2017-Oct-14 17:29N 42°22' E 004°09'1012.1
2017-Oct-14 16:39N 42°30' E 004°18'1112.6
2017-Oct-14 15:47N 42°38' E 004°28'612.7
2017-Oct-14 15:19N 42°42' E 004°34'1312.5
2017-Oct-14 14:16N 42°52' E 004°46'612.6
2017-Oct-14 13:49N 42°56' E 004°51'512.1
2017-Oct-14 13:22N 42°60' E 004°56'512.2
2017-Oct-14 12:57N 43°04' E 005°01'612.4
2017-Oct-14 12:25N 43°08' E 005°07'511.5
2017-Oct-14 12:00N 43°13' E 005°09'611.1
2017-Oct-14 11:30N 43°18' E 005°13'610.0
2017-Oct-14 10:57N 43°21' E 005°19'1 0.0
2017-Oct-13 11:53N 43°21' E 005°20'0 0.3
2017-Oct-13 11:30N 43°21' E 005°20'3 5.5
2017-Oct-13 11:00N 43°20' E 005°17'611.2
2017-Oct-13 10:30N 43°16' E 005°11'611.9
2017-Oct-13 10:00N 43°10' E 005°11'612.2
2017-Oct-13 09:30N 43°07' E 005°18'712.4
2017-Oct-13 08:57N 43°04' E 005°26'612.9
2017-Oct-13 08:28N 43°01' E 005°34'612.9
2017-Oct-13 08:00N 42°58' E 005°41'712.9
2017-Oct-13 07:30N 42°54' E 005°48'612.4
2017-Oct-13 07:00N 42°53' E 005°57'612.9
2017-Oct-13 06:30N 42°53' E 006°05'612.9
2017-Oct-13 06:00N 42°53' E 006°14'3512.7
2017-Oct-13 03:14N 43°02' E 007°01'412.3
2017-Oct-13 02:56N 43°04' E 007°06'512.1
2017-Oct-13 02:30N 43°06' E 007°12'611.8
2017-Oct-13 01:57N 43°08' E 007°20'511.7
2017-Oct-13 01:30N 43°10' E 007°27'1511.7
2017-Oct-13 00:12N 43°16' E 007°46'411.6
2017-Oct-12 23:53N 43°17' E 007°51'3111.8
2017-Oct-12 21:18N 43°37' E 008°23'612.0
2017-Oct-12 20:48N 43°41' E 008°30'311.6
2017-Oct-12 20:30N 43°43' E 008°33'611.8
2017-Oct-12 19:59N 43°48' E 008°38'611.9
2017-Oct-12 19:30N 43°52' E 008°44'611.9
2017-Oct-12 19:00N 43°56' E 008°50'611.7
2017-Oct-12 18:30N 44°01' E 008°55'611.7
2017-Oct-12 18:00N 44°06' E 008°56'611.7
2017-Oct-12 17:30N 44°12' E 008°57'611.7
2017-Oct-12 17:00N 44°18' E 008°57'511.0
2017-Oct-12 16:30N 44°23' E 008°56'2 3.3
2017-Oct-12 15:58N 44°24' E 008°54'0 0.0
2017-Oct-12 15:28N 44°24' E 008°54'0 0.0
2017-Oct-12 14:58N 44°24' E 008°54'0 0.0
2017-Oct-12 14:28N 44°24' E 008°54'0 0.0
2017-Oct-12 13:58N 44°24' E 008°54'0 0.0
2017-Oct-12 13:28N 44°24' E 008°54'0 0.0
2017-Oct-12 12:58N 44°24' E 008°54'1 1.4
2017-Oct-12 12:30N 44°24' E 008°55'4 7.8
2017-Oct-12 12:00N 44°21' E 008°59'1 2.5
2017-Oct-12 11:30N 44°20' E 008°59'612.2
2017-Oct-12 11:00N 44°15' E 009°04'712.8
2017-Oct-12 10:29N 44°10' E 009°11'3110.5
2017-Oct-12 07:32N 44°02' E 009°52'012.4
2017-Oct-12 07:30N 44°02' E 009°52'4 6.9
2017-Oct-12 06:54N 44°06' E 009°50'0 0.0
2017-Oct-12 06:30N 44°06' E 009°50'0 0.0
2017-Oct-12 06:00N 44°06' E 009°50'0 0.0
2017-Oct-12 05:30N 44°06' E 009°50'0 0.0
2017-Oct-12 05:00N 44°06' E 009°50'0 0.0
2017-Oct-12 04:30N 44°06' E 009°50'0 0.0
2017-Oct-12 04:00N 44°06' E 009°50'0 0.0
2017-Oct-12 03:30N 44°06' E 009°50'0 0.0
2017-Oct-12 02:57N 44°06' E 009°50'0 0.0
2017-Oct-12 02:30N 44°06' E 009°50'0 0.0
2017-Oct-12 02:00N 44°06' E 009°50'0 0.0
2017-Oct-12 01:30N 44°06' E 009°50'0 0.0
2017-Oct-12 01:00N 44°06' E 009°50'0 0.0
2017-Oct-12 00:30N 44°06' E 009°50'0 0.0
2017-Oct-11 23:57N 44°06' E 009°50'0 0.0
2017-Oct-11 23:30N 44°06' E 009°50'0 0.0
2017-Oct-11 23:00N 44°06' E 009°50'0 0.0
2017-Oct-11 22:30N 44°06' E 009°50'0 0.0
2017-Oct-11 22:00N 44°06' E 009°50'0 0.0
2017-Oct-11 21:30N 44°06' E 009°50'0 0.0
2017-Oct-11 21:00N 44°06' E 009°50'0 0.0
2017-Oct-11 20:30N 44°06' E 009°50'0 0.0
2017-Oct-11 20:00N 44°06' E 009°50'0 0.0
2017-Oct-11 19:30N 44°06' E 009°50'0 0.0
2017-Oct-11 19:00N 44°06' E 009°50'0 0.0
2017-Oct-11 18:30N 44°06' E 009°50'0 0.0
2017-Oct-11 18:00N 44°06' E 009°50'0 0.0
2017-Oct-11 17:30N 44°06' E 009°50'0 0.0
2017-Oct-11 17:00N 44°06' E 009°50'0 0.0
2017-Oct-10 23:57N 44°06' E 009°50'0 0.0
2017-Oct-10 23:30N 44°06' E 009°50'0 0.0
2017-Oct-10 22:57N 44°06' E 009°50'0 0.0
2017-Oct-10 22:30N 44°06' E 009°50'0 0.0
2017-Oct-10 21:57N 44°06' E 009°50'0 0.0
2017-Oct-10 21:30N 44°06' E 009°50'0 0.0
2017-Oct-10 21:00N 44°06' E 009°50'0 0.0
2017-Oct-10 20:27N 44°06' E 009°50'0 0.0
2017-Oct-10 20:00N 44°06' E 009°50'0 0.0
2017-Oct-10 19:30N 44°06' E 009°50'0 0.0
2017-Oct-10 19:00N 44°06' E 009°50'0 0.0
2017-Oct-10 18:30N 44°06' E 009°50'0 0.0
2017-Oct-10 18:00N 44°06' E 009°50'0 0.0
2017-Oct-10 17:21N 44°06' E 009°50'0 0.0
2017-Oct-10 16:57N 44°06' E 009°50'0 0.0
2017-Oct-10 16:18N 44°06' E 009°50'0 0.0
2017-Oct-10 16:00N 44°06' E 009°50'0 0.0
2017-Oct-10 15:30N 44°06' E 009°50'0 0.0
2017-Oct-10 15:00N 44°06' E 009°50'0 0.0
2017-Oct-10 14:00N 44°06' E 009°50'0 0.0
2017-Oct-10 13:30N 44°06' E 009°50'0 0.0
2017-Oct-10 13:00N 44°06' E 009°50'0 0.0
2017-Oct-10 12:30N 44°06' E 009°50'0 0.0
2017-Oct-10 12:00N 44°06' E 009°50'0 0.0
2017-Oct-10 11:24N 44°06' E 009°50'0 0.2
2017-Oct-10 11:00N 44°06' E 009°50'3 6.3
2017-Oct-10 10:30N 44°03' E 009°52'3 7.0
2017-Oct-10 10:00N 44°01' E 009°55'4 7.2
2017-Oct-10 09:31N 43°58' E 009°53'612.2
2017-Oct-10 09:00N 43°53' E 009°47'612.3
2017-Oct-10 08:30N 43°48' E 009°42'612.2
2017-Oct-10 08:00N 43°43' E 009°37'712.3
2017-Oct-10 07:28N 43°38' E 009°31'612.4
2017-Oct-10 07:00N 43°34' E 009°25'612.8
2017-Oct-10 06:31N 43°30' E 009°19'612.6
2017-Oct-10 06:00N 43°25' E 009°13'712.5
2017-Oct-10 05:28N 43°20' E 009°06'612.6
2017-Oct-10 05:00N 43°16' E 009°01'55712.1
2017-Oct-08 06:51N 36°44' E 000°25'412.5
2017-Oct-08 06:31N 36°41' E 000°22'76 2.4
2017-Oct-06 22:37N 35°43' W 000°38'0 0.0
2017-Oct-06 22:22N 35°43' W 000°38'0 0.0
2017-Oct-06 21:32N 35°43' W 000°38'0 0.0
2017-Oct-06 21:28N 35°43' W 000°38'0 0.0
2017-Oct-06 20:58N 35°43' W 000°38'0 0.0
2017-Oct-06 19:42N 35°43' W 000°38'0 0.0
2017-Oct-06 19:28N 35°43' W 000°38'0 0.0
2017-Oct-06 19:00N 35°43' W 000°38'0 0.0
2017-Oct-06 18:28N 35°43' W 000°38'0 0.0
2017-Oct-06 02:36N 35°43' W 000°38'0 0.0
2017-Oct-06 01:22N 35°43' W 000°38'0 0.0
2017-Oct-06 00:58N 35°43' W 000°38'0 0.0
2017-Oct-06 00:22N 35°43' W 000°38'0 0.0
2017-Oct-05 23:58N 35°43' W 000°38'0 0.0
2017-Oct-05 19:58N 35°43' W 000°38'0 0.0
2017-Oct-05 19:28N 35°43' W 000°38'0 0.0
2017-Oct-05 18:58N 35°43' W 000°38'0 0.0
2017-Oct-05 18:10N 35°43' W 000°38'0 0.0
2017-Oct-05 17:55N 35°43' W 000°38'0 0.0
2017-Oct-05 17:28N 35°43' W 000°38'0 0.0
2017-Oct-05 16:58N 35°43' W 000°38'0 0.0
2017-Oct-05 14:46N 35°43' W 000°38'  
Track history (hours):
 
Tides and Currents Weather Stations Pressure Air Temp Water Temp Dewpoint Dewpoint Depression Visibility Wind Speed Wind Dir Waves Ship Positions

Sainty Vogue

Last reported at 2017-Oct-15 02:58 UTC. Time now 2017-Oct-17 02:19 UTC.
Position N 41°19' E 002°12'.

Length 158 m; draft 6.2 m.

Type: Ship (hazmat cat D). MMSI: 538005276.

Date/timePositionNaut miles runAvg speedWind from/ knotsBaromVisibWave heightAir tempDewpointWater temp
2017-Oct-15 02:58N 41°19' E 002°12'9011.3
2017-Oct-14 18:59N 42°09' E 003°52'1412.3
2017-Oct-14 17:49N 42°19' E 004°05'412.1
2017-Oct-14 17:29N 42°22' E 004°09'1012.1
2017-Oct-14 16:39N 42°30' E 004°18'1112.6
2017-Oct-14 15:47N 42°38' E 004°28'612.7
2017-Oct-14 15:19N 42°42' E 004°34'1312.5
2017-Oct-14 14:16N 42°52' E 004°46'612.6
2017-Oct-14 13:49N 42°56' E 004°51'512.1
2017-Oct-14 13:22N 42°60' E 004°56'512.2
2017-Oct-14 12:57N 43°04' E 005°01'612.4
2017-Oct-14 12:25N 43°08' E 005°07'511.5
2017-Oct-14 12:00N 43°13' E 005°09'611.1
2017-Oct-14 11:30N 43°18' E 005°13'610.0
2017-Oct-14 10:57N 43°21' E 005°19'1 0.0
2017-Oct-13 11:53N 43°21' E 005°20'0 0.3
2017-Oct-13 11:30N 43°21' E 005°20'3 5.5
2017-Oct-13 11:00N 43°20' E 005°17'611.2
2017-Oct-13 10:30N 43°16' E 005°11'611.9
2017-Oct-13 10:00N 43°10' E 005°11'612.2
2017-Oct-13 09:30N 43°07' E 005°18'712.4
2017-Oct-13 08:57N 43°04' E 005°26'612.9
2017-Oct-13 08:28N 43°01' E 005°34'612.9
2017-Oct-13 08:00N 42°58' E 005°41'712.9
2017-Oct-13 07:30N 42°54' E 005°48'612.4
2017-Oct-13 07:00N 42°53' E 005°57'612.9
2017-Oct-13 06:30N 42°53' E 006°05'612.9
2017-Oct-13 06:00N 42°53' E 006°14'3512.7
2017-Oct-13 03:14N 43°02' E 007°01'412.3
2017-Oct-13 02:56N 43°04' E 007°06'512.1
2017-Oct-13 02:30N 43°06' E 007°12'611.8
2017-Oct-13 01:57N 43°08' E 007°20'511.7
2017-Oct-13 01:30N 43°10' E 007°27'1511.7
2017-Oct-13 00:12N 43°16' E 007°46'411.6
2017-Oct-12 23:53N 43°17' E 007°51'3111.8
2017-Oct-12 21:18N 43°37' E 008°23'612.0
2017-Oct-12 20:48N 43°41' E 008°30'311.6
2017-Oct-12 20:30N 43°43' E 008°33'611.8
2017-Oct-12 19:59N 43°48' E 008°38'611.9
2017-Oct-12 19:30N 43°52' E 008°44'611.9
2017-Oct-12 19:00N 43°56' E 008°50'611.7
2017-Oct-12 18:30N 44°01' E 008°55'611.7
2017-Oct-12 18:00N 44°06' E 008°56'611.7
2017-Oct-12 17:30N 44°12' E 008°57'611.7
2017-Oct-12 17:00N 44°18' E 008°57'511.0
2017-Oct-12 16:30N 44°23' E 008°56'2 3.3
2017-Oct-12 15:58N 44°24' E 008°54'0 0.0
2017-Oct-12 15:28N 44°24' E 008°54'0 0.0
2017-Oct-12 14:58N 44°24' E 008°54'0 0.0
2017-Oct-12 14:28N 44°24' E 008°54'0 0.0
2017-Oct-12 13:58N 44°24' E 008°54'0 0.0
2017-Oct-12 13:28N 44°24' E 008°54'0 0.0
2017-Oct-12 12:58N 44°24' E 008°54'1 1.4
2017-Oct-12 12:30N 44°24' E 008°55'4 7.8
2017-Oct-12 12:00N 44°21' E 008°59'1 2.5
2017-Oct-12 11:30N 44°20' E 008°59'612.2
2017-Oct-12 11:00N 44°15' E 009°04'712.8
2017-Oct-12 10:29N 44°10' E 009°11'3110.5
2017-Oct-12 07:32N 44°02' E 009°52'012.4
2017-Oct-12 07:30N 44°02' E 009°52'4 6.9
2017-Oct-12 06:54N 44°06' E 009°50'0 0.0
2017-Oct-12 06:30N 44°06' E 009°50'0 0.0
2017-Oct-12 06:00N 44°06' E 009°50'0 0.0
2017-Oct-12 05:30N 44°06' E 009°50'0 0.0
2017-Oct-12 05:00N 44°06' E 009°50'0 0.0
2017-Oct-12 04:30N 44°06' E 009°50'0 0.0
2017-Oct-12 04:00N 44°06' E 009°50'0 0.0
2017-Oct-12 03:30N 44°06' E 009°50'0 0.0
2017-Oct-12 02:57N 44°06' E 009°50'0 0.0
2017-Oct-12 02:30N 44°06' E 009°50'0 0.0
2017-Oct-12 02:00N 44°06' E 009°50'0 0.0
2017-Oct-12 01:30N 44°06' E 009°50'0 0.0
2017-Oct-12 01:00N 44°06' E 009°50'0 0.0
2017-Oct-12 00:30N 44°06' E 009°50'0 0.0
2017-Oct-11 23:57N 44°06' E 009°50'0 0.0
2017-Oct-11 23:30N 44°06' E 009°50'0 0.0
2017-Oct-11 23:00N 44°06' E 009°50'0 0.0
2017-Oct-11 22:30N 44°06' E 009°50'0 0.0
2017-Oct-11 22:00N 44°06' E 009°50'0 0.0
2017-Oct-11 21:30N 44°06' E 009°50'0 0.0
2017-Oct-11 21:00N 44°06' E 009°50'0 0.0
2017-Oct-11 20:30N 44°06' E 009°50'0 0.0
2017-Oct-11 20:00N 44°06' E 009°50'0 0.0
2017-Oct-11 19:30N 44°06' E 009°50'0 0.0
2017-Oct-11 19:00N 44°06' E 009°50'0 0.0
2017-Oct-11 18:30N 44°06' E 009°50'0 0.0
2017-Oct-11 18:00N 44°06' E 009°50'0 0.0
2017-Oct-11 17:30N 44°06' E 009°50'0 0.0
2017-Oct-11 17:00N 44°06' E 009°50'0 0.0
2017-Oct-10 23:57N 44°06' E 009°50'0 0.0
2017-Oct-10 23:30N 44°06' E 009°50'0 0.0
2017-Oct-10 22:57N 44°06' E 009°50'0 0.0
2017-Oct-10 22:30N 44°06' E 009°50'0 0.0
2017-Oct-10 21:57N 44°06' E 009°50'0 0.0
2017-Oct-10 21:30N 44°06' E 009°50'0 0.0
2017-Oct-10 21:00N 44°06' E 009°50'0 0.0
2017-Oct-10 20:27N 44°06' E 009°50'0 0.0
2017-Oct-10 20:00N 44°06' E 009°50'0 0.0
2017-Oct-10 19:30N 44°06' E 009°50'0 0.0
2017-Oct-10 19:00N 44°06' E 009°50'0 0.0
2017-Oct-10 18:30N 44°06' E 009°50'0 0.0
2017-Oct-10 18:00N 44°06' E 009°50'0 0.0
2017-Oct-10 17:21N 44°06' E 009°50'0 0.0
2017-Oct-10 16:57N 44°06' E 009°50'0 0.0
2017-Oct-10 16:18N 44°06' E 009°50'0 0.0
2017-Oct-10 16:00N 44°06' E 009°50'0 0.0
2017-Oct-10 15:30N 44°06' E 009°50'0 0.0
2017-Oct-10 15:00N 44°06' E 009°50'0 0.0
2017-Oct-10 14:00N 44°06' E 009°50'0 0.0
2017-Oct-10 13:30N 44°06' E 009°50'0 0.0
2017-Oct-10 13:00N 44°06' E 009°50'0 0.0
2017-Oct-10 12:30N 44°06' E 009°50'0 0.0
2017-Oct-10 12:00N 44°06' E 009°50'0 0.0
2017-Oct-10 11:24N 44°06' E 009°50'0 0.2
2017-Oct-10 11:00N 44°06' E 009°50'3 6.3
2017-Oct-10 10:30N 44°03' E 009°52'3 7.0
2017-Oct-10 10:00N 44°01' E 009°55'4 7.2
2017-Oct-10 09:31N 43°58' E 009°53'612.2
2017-Oct-10 09:00N 43°53' E 009°47'612.3
2017-Oct-10 08:30N 43°48' E 009°42'612.2
2017-Oct-10 08:00N 43°43' E 009°37'712.3
2017-Oct-10 07:28N 43°38' E 009°31'612.4
2017-Oct-10 07:00N 43°34' E 009°25'612.8
2017-Oct-10 06:31N 43°30' E 009°19'612.6
2017-Oct-10 06:00N 43°25' E 009°13'712.5
2017-Oct-10 05:28N 43°20' E 009°06'612.6
2017-Oct-10 05:00N 43°16' E 009°01'55712.1
2017-Oct-08 06:51N 36°44' E 000°25'412.5
2017-Oct-08 06:31N 36°41' E 000°22'76 2.4
2017-Oct-06 22:37N 35°43' W 000°38'0 0.0
2017-Oct-06 22:22N 35°43' W 000°38'0 0.0
2017-Oct-06 21:32N 35°43' W 000°38'0 0.0
2017-Oct-06 21:28N 35°43' W 000°38'0 0.0
2017-Oct-06 20:58N 35°43' W 000°38'0 0.0
2017-Oct-06 19:42N 35°43' W 000°38'0 0.0
2017-Oct-06 19:28N 35°43' W 000°38'0 0.0
2017-Oct-06 19:00N 35°43' W 000°38'0 0.0
2017-Oct-06 18:28N 35°43' W 000°38'0 0.0
2017-Oct-06 02:36N 35°43' W 000°38'0 0.0
2017-Oct-06 01:22N 35°43' W 000°38'0 0.0
2017-Oct-06 00:58N 35°43' W 000°38'0 0.0
2017-Oct-06 00:22N 35°43' W 000°38'0 0.0
2017-Oct-05 23:58N 35°43' W 000°38'0 0.0
2017-Oct-05 19:58N 35°43' W 000°38'0 0.0
2017-Oct-05 19:28N 35°43' W 000°38'0 0.0
2017-Oct-05 18:58N 35°43' W 000°38'0 0.0
2017-Oct-05 18:10N 35°43' W 000°38'0 0.0
2017-Oct-05 17:55N 35°43' W 000°38'0 0.0
2017-Oct-05 17:28N 35°43' W 000°38'0 0.0
2017-Oct-05 16:58N 35°43' W 000°38'0 0.0
2017-Oct-05 14:46N 35°43' W 000°38'  

Dump ship's entire track history